Youngstown, Canada
Current Conditions -  °F | °C
As of 7:00 PM on Friday 28 Nov 2014 (Local Time) from CYKY Reporting Station
Light Snow Light Snow  
Wind Chill: -23°   Ceiling: 2500
Heat Index: -2°   Visibility: 8mi
Dew Point: -8°   Wind: 16mph
Humidity: 78%   Direction: 320°NW
Pressure: 29.64"   Gusts: NA
Location:  51.53°N, 111.2°W
Report Text: CYKY 290200Z 32014KT 8SM -SN DRSN SCT003 OVC025 M19/M22 A2964 RMK SC3SC5 SLP096
Loading
Personal Weather Stations






























Interactive Weather Map New forecast layout! Learn more

10-Day Weather Forecast

Advertisements
Track Severe Weather on mobile